sensor_id;sensor_type;location;lat;lon;timestamp;P1;durP1;ratioP1;P2;durP2;ratioP2
6955;SDS011;50345;51.136;16.886;2023-05-10T00:00:40;5.27;;;4.80;;
6955;SDS011;50345;51.136;16.886;2023-05-10T00:03:05;5.83;;;5.17;;
6955;SDS011;50345;51.136;16.886;2023-05-10T00:05:31;8.77;;;5.80;;
6955;SDS011;50345;51.136;16.886;2023-05-10T00:07:57;7.67;;;5.30;;
6955;SDS011;50345;51.136;16.886;2023-05-10T00:10:22;10.13;;;5.47;;
6955;SDS011;50345;51.136;16.886;2023-05-10T00:12:48;5.90;;;5.20;;
6955;SDS011;50345;51.136;16.886;2023-05-10T00:15:14;6.80;;;6.10;;
6955;SDS011;50345;51.136;16.886;2023-05-10T00:17:39;5.80;;;4.90;;
6955;SDS011;50345;51.136;16.886;2023-05-10T00:20:05;7.47;;;6.13;;
6955;SDS011;50345;51.136;16.886;2023-05-10T00:22:32;7.60;;;5.55;;
6955;SDS011;50345;51.136;16.886;2023-05-10T00:24:57;9.57;;;5.57;;
6955;SDS011;50345;51.136;16.886;2023-05-10T00:27:23;5.60;;;5.10;;
6955;SDS011;50345;51.136;16.886;2023-05-10T00:29:49;6.90;;;6.20;;
6955;SDS011;50345;51.136;16.886;2023-05-10T00:32:15;7.50;;;6.80;;
6955;SDS011;50345;51.136;16.886;2023-05-10T00:34:41;6.80;;;5.55;;
6955;SDS011;50345;51.136;16.886;2023-05-10T00:37:07;6.40;;;5.80;;
6955;SDS011;50345;51.136;16.886;2023-05-10T00:39:32;6.70;;;6.00;;
6955;SDS011;50345;51.136;16.886;2023-05-10T00:41:58;7.20;;;6.50;;
6955;SDS011;50345;51.136;16.886;2023-05-10T00:44:25;6.82;;;5.72;;
6955;SDS011;50345;51.136;16.886;2023-05-10T00:46:50;7.40;;;6.07;;
6955;SDS011;50345;51.136;16.886;2023-05-10T00:49:19;8.17;;;6.10;;
6955;SDS011;50345;51.136;16.886;2023-05-10T00:51:56;7.63;;;5.95;;
6955;SDS011;50345;51.136;16.886;2023-05-10T00:54:22;7.60;;;6.80;;
6955;SDS011;50345;51.136;16.886;2023-05-10T00:56:47;9.03;;;6.40;;
6955;SDS011;50345;51.136;16.886;2023-05-10T00:59:17;7.65;;;5.95;;
6955;SDS011;50345;51.136;16.886;2023-05-10T01:01:44;7.60;;;6.35;;
6955;SDS011;50345;51.136;16.886;2023-05-10T01:04:12;6.28;;;5.68;;
6955;SDS011;50345;51.136;16.886;2023-05-10T01:06:39;7.18;;;6.47;;
6955;SDS011;50345;51.136;16.886;2023-05-10T01:09:05;8.82;;;7.18;;
6955;SDS011;50345;51.136;16.886;2023-05-10T01:11:32;6.75;;;6.03;;
6955;SDS011;50345;51.136;16.886;2023-05-10T01:13:58;9.82;;;7.78;;
6955;SDS011;50345;51.136;16.886;2023-05-10T01:16:24;7.75;;;6.00;;
6955;SDS011;50345;51.136;16.886;2023-05-10T01:18:51;9.07;;;7.00;;
6955;SDS011;50345;51.136;16.886;2023-05-10T01:21:37;10.57;;;6.72;;
6955;SDS011;50345;51.136;16.886;2023-05-10T01:27:14;9.13;;;6.15;;
6955;SDS011;50345;51.136;16.886;2023-05-10T01:33:23;6.72;;;6.00;;
6955;SDS011;50345;51.136;16.886;2023-05-10T01:38:41;8.32;;;7.53;;
6955;SDS011;50345;51.136;16.886;2023-05-10T01:43:48;8.63;;;7.03;;
6955;SDS011;50345;51.136;16.886;2023-05-10T01:46:49;7.80;;;6.75;;
6955;SDS011;50345;51.136;16.886;2023-05-10T01:49:26;9.38;;;6.65;;
6955;SDS011;50345;51.136;16.886;2023-05-10T01:51:59;8.35;;;6.75;;
6955;SDS011;50345;51.136;16.886;2023-05-10T01:54:31;6.57;;;6.00;;
6955;SDS011;50345;51.136;16.886;2023-05-10T01:57:00;8.30;;;6.68;;
6955;SDS011;50345;51.136;16.886;2023-05-10T01:59:30;9.73;;;6.57;;
6955;SDS011;50345;51.136;16.886;2023-05-10T02:02:01;7.05;;;6.35;;
6955;SDS011;50345;51.136;16.886;2023-05-10T02:04:29;8.18;;;7.28;;
6955;SDS011;50345;51.136;16.886;2023-05-10T02:06:55;7.13;;;6.40;;
6955;SDS011;50345;51.136;16.886;2023-05-10T02:09:22;10.35;;;6.72;;
6955;SDS011;50345;51.136;16.886;2023-05-10T02:11:50;8.55;;;6.97;;
6955;SDS011;50345;51.136;16.886;2023-05-10T02:14:17;9.77;;;6.60;;
6955;SDS011;50345;51.136;16.886;2023-05-10T02:16:44;7.93;;;6.68;;
6955;SDS011;50345;51.136;16.886;2023-05-10T02:19:11;10.27;;;6.50;;
6955;SDS011;50345;51.136;16.886;2023-05-10T02:21:39;9.07;;;7.38;;
6955;SDS011;50345;51.136;16.886;2023-05-10T02:24:06;8.50;;;6.78;;
6955;SDS011;50345;51.136;16.886;2023-05-10T02:26:34;6.55;;;5.72;;
6955;SDS011;50345;51.136;16.886;2023-05-10T02:29:01;6.88;;;6.22;;
6955;SDS011;50345;51.136;16.886;2023-05-10T02:31:28;10.13;;;7.25;;
6955;SDS011;50345;51.136;16.886;2023-05-10T02:33:56;8.40;;;6.55;;
6955;SDS011;50345;51.136;16.886;2023-05-10T02:36:23;6.95;;;6.18;;
6955;SDS011;50345;51.136;16.886;2023-05-10T02:38:52;7.68;;;6.70;;
6955;SDS011;50345;51.136;16.886;2023-05-10T02:41:19;10.23;;;7.40;;
6955;SDS011;50345;51.136;16.886;2023-05-10T02:43:48;13.45;;;6.72;;
6955;SDS011;50345;51.136;16.886;2023-05-10T02:46:15;8.65;;;6.78;;
6955;SDS011;50345;51.136;16.886;2023-05-10T02:48:41;7.70;;;6.90;;
6955;SDS011;50345;51.136;16.886;2023-05-10T02:51:07;7.87;;;7.07;;
6955;SDS011;50345;51.136;16.886;2023-05-10T02:53:34;7.70;;;6.70;;
6955;SDS011;50345;51.136;16.886;2023-05-10T02:56:04;11.05;;;7.18;;
6955;SDS011;50345;51.136;16.886;2023-05-10T02:58:33;12.52;;;7.38;;
6955;SDS011;50345;51.136;16.886;2023-05-10T03:00:59;8.00;;;7.20;;
6955;SDS011;50345;51.136;16.886;2023-05-10T03:03:25;10.73;;;8.15;;
6955;SDS011;50345;51.136;16.886;2023-05-10T03:05:51;9.90;;;7.47;;
6955;SDS011;50345;51.136;16.886;2023-05-10T03:08:20;9.90;;;6.43;;
6955;SDS011;50345;51.136;16.886;2023-05-10T03:11:37;9.68;;;7.05;;
6955;SDS011;50345;51.136;16.886;2023-05-10T03:16:45;7.85;;;6.57;;
6955;SDS011;50345;51.136;16.886;2023-05-10T03:19:16;9.00;;;6.93;;
6955;SDS011;50345;51.136;16.886;2023-05-10T03:21:49;8.10;;;6.43;;
6955;SDS011;50345;51.136;16.886;2023-05-10T03:24:17;9.88;;;7.53;;
6955;SDS011;50345;51.136;16.886;2023-05-10T03:26:45;12.70;;;8.60;;
6955;SDS011;50345;51.136;16.886;2023-05-10T03:29:12;9.60;;;7.70;;
6955;SDS011;50345;51.136;16.886;2023-05-10T03:31:39;10.40;;;7.60;;
6955;SDS011;50345;51.136;16.886;2023-05-10T03:34:05;12.40;;;7.80;;
6955;SDS011;50345;51.136;16.886;2023-05-10T03:36:31;8.27;;;7.15;;
6955;SDS011;50345;51.136;16.886;2023-05-10T03:38:56;8.60;;;7.43;;
6955;SDS011;50345;51.136;16.886;2023-05-10T03:41:22;9.33;;;6.90;;
6955;SDS011;50345;51.136;16.886;2023-05-10T03:43:47;10.43;;;8.40;;
6955;SDS011;50345;51.136;16.886;2023-05-10T03:46:13;11.70;;;7.20;;
6955;SDS011;50345;51.136;16.886;2023-05-10T03:48:39;9.00;;;6.20;;
6955;SDS011;50345;51.136;16.886;2023-05-10T03:51:04;10.63;;;8.30;;
6955;SDS011;50345;51.136;16.886;2023-05-10T03:53:30;9.30;;;7.30;;
6955;SDS011;50345;51.136;16.886;2023-05-10T03:55:55;9.63;;;7.43;;
6955;SDS011;50345;51.136;16.886;2023-05-10T03:58:21;9.10;;;7.47;;
6955;SDS011;50345;51.136;16.886;2023-05-10T04:00:47;8.13;;;7.40;;
6955;SDS011;50345;51.136;16.886;2023-05-10T04:03:12;8.57;;;7.67;;
6955;SDS011;50345;51.136;16.886;2023-05-10T04:05:38;9.43;;;8.07;;
6955;SDS011;50345;51.136;16.886;2023-05-10T04:08:04;10.83;;;7.70;;
6955;SDS011;50345;51.136;16.886;2023-05-10T04:10:30;10.63;;;7.57;;
6955;SDS011;50345;51.136;16.886;2023-05-10T04:12:56;7.80;;;7.07;;
6955;SDS011;50345;51.136;16.886;2023-05-10T04:15:21;9.30;;;6.70;;
6955;SDS011;50345;51.136;16.886;2023-05-10T04:17:47;11.00;;;8.40;;
6955;SDS011;50345;51.136;16.886;2023-05-10T04:20:13;7.43;;;6.73;;
6955;SDS011;50345;51.136;16.886;2023-05-10T04:22:39;10.57;;;7.30;;
6955;SDS011;50345;51.136;16.886;2023-05-10T04:25:05;11.23;;;7.80;;
6955;SDS011;50345;51.136;16.886;2023-05-10T04:27:31;10.77;;;7.05;;
6955;SDS011;50345;51.136;16.886;2023-05-10T04:29:56;14.20;;;6.63;;
6955;SDS011;50345;51.136;16.886;2023-05-10T04:32:22;12.53;;;8.37;;
6955;SDS011;50345;51.136;16.886;2023-05-10T04:34:48;11.43;;;8.07;;
6955;SDS011;50345;51.136;16.886;2023-05-10T04:37:15;13.07;;;6.80;;
6955;SDS011;50345;51.136;16.886;2023-05-10T04:39:41;8.45;;;7.45;;
6955;SDS011;50345;51.136;16.886;2023-05-10T04:42:07;11.90;;;7.73;;
6955;SDS011;50345;51.136;16.886;2023-05-10T04:44:33;9.40;;;7.33;;
6955;SDS011;50345;51.136;16.886;2023-05-10T04:46:58;9.27;;;6.20;;
6955;SDS011;50345;51.136;16.886;2023-05-10T04:49:24;8.00;;;6.57;;
6955;SDS011;50345;51.136;16.886;2023-05-10T04:51:50;7.73;;;6.60;;
6955;SDS011;50345;51.136;16.886;2023-05-10T04:54:15;8.53;;;7.60;;
6955;SDS011;50345;51.136;16.886;2023-05-10T04:56:41;8.07;;;7.27;;
6955;SDS011;50345;51.136;16.886;2023-05-10T04:59:07;10.10;;;7.43;;
6955;SDS011;50345;51.136;16.886;2023-05-10T05:01:32;8.67;;;6.87;;
6955;SDS011;50345;51.136;16.886;2023-05-10T05:03:58;9.20;;;7.53;;
6955;SDS011;50345;51.136;16.886;2023-05-10T05:06:24;6.87;;;6.17;;
6955;SDS011;50345;51.136;16.886;2023-05-10T05:08:50;10.17;;;6.50;;
6955;SDS011;50345;51.136;16.886;2023-05-10T05:11:16;8.43;;;7.10;;
6955;SDS011;50345;51.136;16.886;2023-05-10T05:13:42;8.68;;;6.35;;
6955;SDS011;50345;51.136;16.886;2023-05-10T05:16:08;6.80;;;6.23;;
6955;SDS011;50345;51.136;16.886;2023-05-10T05:18:34;7.13;;;6.43;;
6955;SDS011;50345;51.136;16.886;2023-05-10T05:20:59;9.30;;;8.00;;
6955;SDS011;50345;51.136;16.886;2023-05-10T05:23:25;12.25;;;8.35;;
6955;SDS011;50345;51.136;16.886;2023-05-10T05:25:52;10.47;;;7.03;;
6955;SDS011;50345;51.136;16.886;2023-05-10T05:28:18;8.63;;;6.82;;
6955;SDS011;50345;51.136;16.886;2023-05-10T05:30:44;7.25;;;6.55;;
6955;SDS011;50345;51.136;16.886;2023-05-10T05:33:10;9.00;;;6.30;;
6955;SDS011;50345;51.136;16.886;2023-05-10T05:35:36;9.20;;;6.47;;
6955;SDS011;50345;51.136;16.886;2023-05-10T05:38:02;9.13;;;6.43;;
6955;SDS011;50345;51.136;16.886;2023-05-10T05:40:27;11.07;;;7.33;;
6955;SDS011;50345;51.136;16.886;2023-05-10T05:42:53;7.63;;;6.83;;
6955;SDS011;50345;51.136;16.886;2023-05-10T05:45:18;6.83;;;6.13;;
6955;SDS011;50345;51.136;16.886;2023-05-10T05:47:44;7.83;;;5.90;;
6955;SDS011;50345;51.136;16.886;2023-05-10T05:50:10;9.77;;;6.80;;
6955;SDS011;50345;51.136;16.886;2023-05-10T05:52:35;8.97;;;5.83;;
6955;SDS011;50345;51.136;16.886;2023-05-10T05:55:01;7.97;;;6.40;;
6955;SDS011;50345;51.136;16.886;2023-05-10T05:57:26;7.70;;;6.00;;
6955;SDS011;50345;51.136;16.886;2023-05-10T05:59:52;9.47;;;6.47;;
6955;SDS011;50345;51.136;16.886;2023-05-10T06:02:17;9.23;;;6.07;;
6955;SDS011;50345;51.136;16.886;2023-05-10T06:04:43;10.00;;;6.10;;
6955;SDS011;50345;51.136;16.886;2023-05-10T06:07:09;7.83;;;7.03;;
6955;SDS011;50345;51.136;16.886;2023-05-10T06:09:34;7.13;;;6.53;;
6955;SDS011;50345;51.136;16.886;2023-05-10T06:12:00;7.30;;;6.20;;
6955;SDS011;50345;51.136;16.886;2023-05-10T06:14:26;8.85;;;6.47;;
6955;SDS011;50345;51.136;16.886;2023-05-10T06:16:52;8.40;;;6.07;;
6955;SDS011;50345;51.136;16.886;2023-05-10T06:19:17;10.23;;;7.07;;
6955;SDS011;50345;51.136;16.886;2023-05-10T06:21:43;13.40;;;7.00;;
6955;SDS011;50345;51.136;16.886;2023-05-10T06:24:09;6.80;;;6.10;;
6955;SDS011;50345;51.136;16.886;2023-05-10T06:26:35;12.50;;;5.97;;
6955;SDS011;50345;51.136;16.886;2023-05-10T06:29:00;8.13;;;6.63;;
6955;SDS011;50345;51.136;16.886;2023-05-10T06:31:26;9.00;;;6.10;;
6955;SDS011;50345;51.136;16.886;2023-05-10T06:33:52;8.83;;;6.00;;
6955;SDS011;50345;51.136;16.886;2023-05-10T06:36:17;8.40;;;5.83;;
6955;SDS011;50345;51.136;16.886;2023-05-10T06:38:43;13.40;;;7.70;;
6955;SDS011;50345;51.136;16.886;2023-05-10T06:41:09;8.80;;;5.63;;
6955;SDS011;50345;51.136;16.886;2023-05-10T06:43:35;6.63;;;5.30;;
6955;SDS011;50345;51.136;16.886;2023-05-10T06:46:01;5.78;;;4.75;;
6955;SDS011;50345;51.136;16.886;2023-05-10T06:48:27;7.13;;;6.40;;
6955;SDS011;50345;51.136;16.886;2023-05-10T06:50:53;7.37;;;5.33;;
6955;SDS011;50345;51.136;16.886;2023-05-10T06:53:18;8.80;;;5.50;;
6955;SDS011;50345;51.136;16.886;2023-05-10T06:55:44;6.70;;;5.47;;
6955;SDS011;50345;51.136;16.886;2023-05-10T06:58:09;12.63;;;6.53;;
6955;SDS011;50345;51.136;16.886;2023-05-10T07:00:35;7.07;;;5.30;;
6955;SDS011;50345;51.136;16.886;2023-05-10T07:03:05;7.13;;;5.50;;
6955;SDS011;50345;51.136;16.886;2023-05-10T07:05:31;12.13;;;5.10;;
6955;SDS011;50345;51.136;16.886;2023-05-10T07:07:56;7.10;;;6.10;;
6955;SDS011;50345;51.136;16.886;2023-05-10T07:10:22;7.53;;;5.40;;
6955;SDS011;50345;51.136;16.886;2023-05-10T07:12:48;6.33;;;5.60;;
6955;SDS011;50345;51.136;16.886;2023-05-10T07:15:13;7.43;;;5.40;;
6955;SDS011;50345;51.136;16.886;2023-05-10T07:17:40;8.65;;;4.78;;
6955;SDS011;50345;51.136;16.886;2023-05-10T07:20:06;6.50;;;5.57;;
6955;SDS011;50345;51.136;16.886;2023-05-10T07:22:32;7.93;;;5.97;;
6955;SDS011;50345;51.136;16.886;2023-05-10T07:24:58;5.73;;;4.60;;
6955;SDS011;50345;51.136;16.886;2023-05-10T07:27:23;5.77;;;4.30;;
6955;SDS011;50345;51.136;16.886;2023-05-10T07:29:49;5.03;;;4.40;;
6955;SDS011;50345;51.136;16.886;2023-05-10T07:32:15;5.83;;;5.20;;
6955;SDS011;50345;51.136;16.886;2023-05-10T07:34:40;5.70;;;4.90;;
6955;SDS011;50345;51.136;16.886;2023-05-10T07:37:06;5.40;;;4.60;;
6955;SDS011;50345;51.136;16.886;2023-05-10T07:39:32;6.13;;;5.22;;
6955;SDS011;50345;51.136;16.886;2023-05-10T07:41:58;6.90;;;5.00;;
6955;SDS011;50345;51.136;16.886;2023-05-10T07:44:23;6.00;;;5.20;;
6955;SDS011;50345;51.136;16.886;2023-05-10T07:46:49;12.70;;;5.17;;
6955;SDS011;50345;51.136;16.886;2023-05-10T07:49:15;5.25;;;4.60;;
6955;SDS011;50345;51.136;16.886;2023-05-10T07:51:41;5.33;;;4.73;;
6955;SDS011;50345;51.136;16.886;2023-05-10T07:54:07;6.45;;;5.13;;
6955;SDS011;50345;51.136;16.886;2023-05-10T07:56:33;6.60;;;5.40;;
6955;SDS011;50345;51.136;16.886;2023-05-10T07:58:59;18.58;;;6.05;;
6955;SDS011;50345;51.136;16.886;2023-05-10T08:01:25;7.68;;;4.78;;
6955;SDS011;50345;51.136;16.886;2023-05-10T08:03:54;5.70;;;5.20;;
6955;SDS011;50345;51.136;16.886;2023-05-10T08:06:20;5.33;;;4.83;;
6955;SDS011;50345;51.136;16.886;2023-05-10T08:08:46;5.13;;;4.72;;
6955;SDS011;50345;51.136;16.886;2023-05-10T08:11:15;7.13;;;4.63;;
6955;SDS011;50345;51.136;16.886;2023-05-10T08:13:42;5.75;;;5.18;;
6955;SDS011;50345;51.136;16.886;2023-05-10T08:16:08;4.83;;;4.43;;
6955;SDS011;50345;51.136;16.886;2023-05-10T08:18:33;10.43;;;4.70;;
6955;SDS011;50345;51.136;16.886;2023-05-10T08:20:59;7.33;;;3.93;;
6955;SDS011;50345;51.136;16.886;2023-05-10T08:23:24;5.07;;;4.40;;
6955;SDS011;50345;51.136;16.886;2023-05-10T08:25:50;7.60;;;4.43;;
6955;SDS011;50345;51.136;16.886;2023-05-10T08:28:16;7.50;;;4.43;;
6955;SDS011;50345;51.136;16.886;2023-05-10T08:30:42;5.23;;;4.00;;
6955;SDS011;50345;51.136;16.886;2023-05-10T08:33:07;5.17;;;4.13;;
6955;SDS011;50345;51.136;16.886;2023-05-10T08:35:33;4.27;;;3.87;;
6955;SDS011;50345;51.136;16.886;2023-05-10T08:37:59;5.07;;;4.07;;
6955;SDS011;50345;51.136;16.886;2023-05-10T08:40:25;4.57;;;3.57;;
6955;SDS011;50345;51.136;16.886;2023-05-10T08:43:04;3.78;;;2.80;;
6955;SDS011;50345;51.136;16.886;2023-05-10T08:45:32;3.60;;;3.30;;
6955;SDS011;50345;51.136;16.886;2023-05-10T08:48:01;4.70;;;3.80;;
6955;SDS011;50345;51.136;16.886;2023-05-10T08:50:27;4.37;;;3.77;;
6955;SDS011;50345;51.136;16.886;2023-05-10T08:52:55;4.80;;;4.20;;
6955;SDS011;50345;51.136;16.886;2023-05-10T08:55:24;14.53;;;4.27;;
6955;SDS011;50345;51.136;16.886;2023-05-10T08:57:50;4.03;;;3.73;;
6955;SDS011;50345;51.136;16.886;2023-05-10T09:00:16;6.43;;;4.10;;
6955;SDS011;50345;51.136;16.886;2023-05-10T09:02:43;5.77;;;3.87;;
6955;SDS011;50345;51.136;16.886;2023-05-10T09:05:10;4.13;;;3.73;;
6955;SDS011;50345;51.136;16.886;2023-05-10T09:07:37;4.83;;;3.37;;
6955;SDS011;50345;51.136;16.886;2023-05-10T09:10:02;4.93;;;3.30;;
6955;SDS011;50345;51.136;16.886;2023-05-10T09:12:29;4.07;;;3.67;;
6955;SDS011;50345;51.136;16.886;2023-05-10T09:14:55;7.13;;;3.40;;
6955;SDS011;50345;51.136;16.886;2023-05-10T09:17:23;3.70;;;3.40;;
6955;SDS011;50345;51.136;16.886;2023-05-10T09:19:49;4.10;;;3.27;;
6955;SDS011;50345;51.136;16.886;2023-05-10T09:22:14;4.77;;;3.60;;
6955;SDS011;50345;51.136;16.886;2023-05-10T09:24:42;4.30;;;3.13;;
6955;SDS011;50345;51.136;16.886;2023-05-10T09:27:10;3.90;;;3.40;;
6955;SDS011;50345;51.136;16.886;2023-05-10T09:29:42;8.27;;;3.20;;
6955;SDS011;50345;51.136;16.886;2023-05-10T09:32:08;3.57;;;3.20;;
6955;SDS011;50345;51.136;16.886;2023-05-10T09:34:33;5.53;;;3.27;;
6955;SDS011;50345;51.136;16.886;2023-05-10T09:37:05;4.53;;;3.70;;
6955;SDS011;50345;51.136;16.886;2023-05-10T09:39:34;3.37;;;3.10;;
6955;SDS011;50345;51.136;16.886;2023-05-10T09:42:02;4.13;;;2.60;;
6955;SDS011;50345;51.136;16.886;2023-05-10T09:44:29;5.53;;;3.40;;
6955;SDS011;50345;51.136;16.886;2023-05-10T09:46:55;4.07;;;3.30;;
6955;SDS011;50345;51.136;16.886;2023-05-10T09:49:21;4.37;;;3.50;;
6955;SDS011;50345;51.136;16.886;2023-05-10T09:51:47;4.10;;;2.97;;
6955;SDS011;50345;51.136;16.886;2023-05-10T09:54:24;3.77;;;3.47;;
6955;SDS011;50345;51.136;16.886;2023-05-10T09:56:49;3.57;;;2.80;;
6955;SDS011;50345;51.136;16.886;2023-05-10T09:59:15;5.47;;;2.60;;
6955;SDS011;50345;51.136;16.886;2023-05-10T10:01:42;3.43;;;3.00;;
6955;SDS011;50345;51.136;16.886;2023-05-10T10:04:14;5.93;;;2.90;;
6955;SDS011;50345;51.136;16.886;2023-05-10T10:06:40;4.33;;;3.10;;
6955;SDS011;50345;51.136;16.886;2023-05-10T10:09:06;3.30;;;3.10;;
6955;SDS011;50345;51.136;16.886;2023-05-10T10:11:36;3.93;;;3.10;;
6955;SDS011;50345;51.136;16.886;2023-05-10T10:14:02;4.93;;;3.40;;
6955;SDS011;50345;51.136;16.886;2023-05-10T10:16:28;3.13;;;2.83;;
6955;SDS011;50345;51.136;16.886;2023-05-10T10:18:55;3.20;;;3.00;;
6955;SDS011;50345;51.136;16.886;2023-05-10T10:21:21;4.90;;;2.90;;
6955;SDS011;50345;51.136;16.886;2023-05-10T10:23:47;2.90;;;2.70;;
6955;SDS011;50345;51.136;16.886;2023-05-10T10:26:13;2.93;;;2.13;;
6955;SDS011;50345;51.136;16.886;2023-05-10T10:28:51;2.93;;;2.50;;
6955;SDS011;50345;51.136;16.886;2023-05-10T10:34:09;3.00;;;2.60;;
6955;SDS011;50345;51.136;16.886;2023-05-10T10:36:43;4.40;;;2.83;;
6955;SDS011;50345;51.136;16.886;2023-05-10T10:39:11;3.43;;;2.70;;
6955;SDS011;50345;51.136;16.886;2023-05-10T10:49:37;5.30;;;2.40;;
6955;SDS011;50345;51.136;16.886;2023-05-10T11:03:17;7.10;;;2.83;;
6955;SDS011;50345;51.136;16.886;2023-05-10T11:05:47;7.80;;;3.30;;
6955;SDS011;50345;51.136;16.886;2023-05-10T11:10:50;3.23;;;2.80;;
6955;SDS011;50345;51.136;16.886;2023-05-10T11:16:10;3.50;;;3.20;;
6955;SDS011;50345;51.136;16.886;2023-05-10T11:21:28;3.53;;;3.10;;
6955;SDS011;50345;51.136;16.886;2023-05-10T11:23:58;6.23;;;2.67;;
6955;SDS011;50345;51.136;16.886;2023-05-10T11:26:31;5.03;;;2.60;;
6955;SDS011;50345;51.136;16.886;2023-05-10T11:28:59;2.97;;;2.67;;
6955;SDS011;50345;51.136;16.886;2023-05-10T11:31:26;3.10;;;2.50;;
6955;SDS011;50345;51.136;16.886;2023-05-10T11:33:53;4.67;;;2.40;;
6955;SDS011;50345;51.136;16.886;2023-05-10T11:36:23;4.50;;;3.20;;
6955;SDS011;50345;51.136;16.886;2023-05-10T11:38:50;3.47;;;2.60;;
6955;SDS011;50345;51.136;16.886;2023-05-10T11:41:17;2.40;;;2.27;;
6955;SDS011;50345;51.136;16.886;2023-05-10T11:43:45;3.07;;;2.87;;
6955;SDS011;50345;51.136;16.886;2023-05-10T11:46:11;3.83;;;3.40;;
6955;SDS011;50345;51.136;16.886;2023-05-10T11:48:38;2.67;;;2.47;;
6955;SDS011;50345;51.136;16.886;2023-05-10T11:51:05;3.77;;;3.00;;
6955;SDS011;50345;51.136;16.886;2023-05-10T11:53:32;3.00;;;2.47;;
6955;SDS011;50345;51.136;16.886;2023-05-10T11:56:10;8.67;;;2.70;;
6955;SDS011;50345;51.136;16.886;2023-05-10T11:58:37;2.83;;;2.30;;
6955;SDS011;50345;51.136;16.886;2023-05-10T12:01:04;9.13;;;3.17;;
6955;SDS011;50345;51.136;16.886;2023-05-10T12:03:31;2.93;;;2.43;;
6955;SDS011;50345;51.136;16.886;2023-05-10T12:05:57;6.00;;;2.77;;
6955;SDS011;50345;51.136;16.886;2023-05-10T12:08:25;9.63;;;3.40;;
6955;SDS011;50345;51.136;16.886;2023-05-10T12:10:53;3.30;;;2.33;;
6955;SDS011;50345;51.136;16.886;2023-05-10T12:13:28;3.33;;;2.77;;
6955;SDS011;50345;51.136;16.886;2023-05-10T12:15:54;4.97;;;2.40;;
6955;SDS011;50345;51.136;16.886;2023-05-10T12:18:23;2.50;;;2.30;;
6955;SDS011;50345;51.136;16.886;2023-05-10T12:20:52;5.10;;;2.37;;
6955;SDS011;50345;51.136;16.886;2023-05-10T12:23:21;3.23;;;2.30;;
6955;SDS011;50345;51.136;16.886;2023-05-10T12:25:46;3.50;;;2.30;;
6955;SDS011;50345;51.136;16.886;2023-05-10T12:28:12;5.13;;;2.63;;
6955;SDS011;50345;51.136;16.886;2023-05-10T12:30:38;3.20;;;2.87;;
6955;SDS011;50345;51.136;16.886;2023-05-10T12:33:08;2.63;;;2.43;;
6955;SDS011;50345;51.136;16.886;2023-05-10T12:38:28;2.93;;;2.40;;
6955;SDS011;50345;51.136;16.886;2023-05-10T12:40:59;2.80;;;1.80;;
6955;SDS011;50345;51.136;16.886;2023-05-10T12:43:26;3.00;;;2.30;;
6955;SDS011;50345;51.136;16.886;2023-05-10T12:45:52;3.50;;;3.20;;
6955;SDS011;50345;51.136;16.886;2023-05-10T12:48:17;4.03;;;2.37;;
6955;SDS011;50345;51.136;16.886;2023-05-10T12:50:43;2.23;;;2.10;;
6955;SDS011;50345;51.136;16.886;2023-05-10T12:53:08;4.73;;;2.67;;
6955;SDS011;50345;51.136;16.886;2023-05-10T12:55:34;3.60;;;2.63;;
6955;SDS011;50345;51.136;16.886;2023-05-10T12:57:59;2.00;;;1.90;;
6955;SDS011;50345;51.136;16.886;2023-05-10T13:00:25;5.60;;;2.30;;
6955;SDS011;50345;51.136;16.886;2023-05-10T13:02:51;7.30;;;2.47;;
6955;SDS011;50345;51.136;16.886;2023-05-10T13:05:17;2.40;;;2.20;;
6955;SDS011;50345;51.136;16.886;2023-05-10T13:07:42;2.60;;;2.40;;
6955;SDS011;50345;51.136;16.886;2023-05-10T13:10:09;4.10;;;1.90;;
6955;SDS011;50345;51.136;16.886;2023-05-10T13:12:35;1.90;;;1.70;;
6955;SDS011;50345;51.136;16.886;2023-05-10T13:15:01;4.23;;;2.00;;
6955;SDS011;50345;51.136;16.886;2023-05-10T13:17:28;2.70;;;2.50;;
6955;SDS011;50345;51.136;16.886;2023-05-10T13:19:54;2.23;;;2.13;;
6955;SDS011;50345;51.136;16.886;2023-05-10T13:22:19;2.50;;;2.30;;
6955;SDS011;50345;51.136;16.886;2023-05-10T13:24:45;2.43;;;2.23;;
6955;SDS011;50345;51.136;16.886;2023-05-10T13:27:10;2.73;;;2.10;;
6955;SDS011;50345;51.136;16.886;2023-05-10T13:29:36;2.13;;;1.93;;
6955;SDS011;50345;51.136;16.886;2023-05-10T13:32:02;5.20;;;2.30;;
6955;SDS011;50345;51.136;16.886;2023-05-10T13:34:27;4.23;;;2.40;;
6955;SDS011;50345;51.136;16.886;2023-05-10T13:36:53;3.57;;;2.23;;
6955;SDS011;50345;51.136;16.886;2023-05-10T13:39:20;2.33;;;2.03;;
6955;SDS011;50345;51.136;16.886;2023-05-10T13:41:46;2.40;;;2.13;;
6955;SDS011;50345;51.136;16.886;2023-05-10T13:44:12;1.93;;;1.83;;
6955;SDS011;50345;51.136;16.886;2023-05-10T13:46:39;1.97;;;1.77;;
6955;SDS011;50345;51.136;16.886;2023-05-10T13:49:05;4.93;;;1.90;;
6955;SDS011;50345;51.136;16.886;2023-05-10T13:51:31;3.07;;;2.13;;
6955;SDS011;50345;51.136;16.886;2023-05-10T13:53:57;3.13;;;1.90;;
6955;SDS011;50345;51.136;16.886;2023-05-10T13:56:23;2.03;;;1.77;;
6955;SDS011;50345;51.136;16.886;2023-05-10T13:58:48;1.90;;;1.80;;
6955;SDS011;50345;51.136;16.886;2023-05-10T14:01:14;1.93;;;1.83;;
6955;SDS011;50345;51.136;16.886;2023-05-10T14:03:40;4.70;;;2.63;;
6955;SDS011;50345;51.136;16.886;2023-05-10T14:06:06;3.03;;;2.40;;
6955;SDS011;50345;51.136;16.886;2023-05-10T14:08:32;1.83;;;1.73;;
6955;SDS011;50345;51.136;16.886;2023-05-10T14:10:58;3.00;;;2.13;;
6955;SDS011;50345;51.136;16.886;2023-05-10T14:13:24;2.23;;;2.03;;
6955;SDS011;50345;51.136;16.886;2023-05-10T14:15:50;2.07;;;1.87;;
6955;SDS011;50345;51.136;16.886;2023-05-10T14:18:16;4.87;;;2.13;;
6955;SDS011;50345;51.136;16.886;2023-05-10T14:20:41;3.57;;;1.93;;
6955;SDS011;50345;51.136;16.886;2023-05-10T14:23:07;3.43;;;2.93;;
6955;SDS011;50345;51.136;16.886;2023-05-10T14:25:32;2.47;;;1.70;;
6955;SDS011;50345;51.136;16.886;2023-05-10T14:27:59;3.33;;;1.60;;
6955;SDS011;50345;51.136;16.886;2023-05-10T14:30:25;2.57;;;2.37;;
6955;SDS011;50345;51.136;16.886;2023-05-10T14:32:50;3.70;;;2.30;;
6955;SDS011;50345;51.136;16.886;2023-05-10T14:35:18;1.90;;;1.40;;
6955;SDS011;50345;51.136;16.886;2023-05-10T14:37:44;2.23;;;2.13;;
6955;SDS011;50345;51.136;16.886;2023-05-10T14:40:10;6.10;;;2.30;;
6955;SDS011;50345;51.136;16.886;2023-05-10T14:42:36;2.63;;;2.43;;
6955;SDS011;50345;51.136;16.886;2023-05-10T14:45:02;4.80;;;2.20;;
6955;SDS011;50345;51.136;16.886;2023-05-10T14:47:28;2.10;;;1.90;;
6955;SDS011;50345;51.136;16.886;2023-05-10T14:49:54;2.40;;;2.20;;
6955;SDS011;50345;51.136;16.886;2023-05-10T14:52:19;1.83;;;1.67;;
6955;SDS011;50345;51.136;16.886;2023-05-10T14:54:45;2.50;;;2.07;;
6955;SDS011;50345;51.136;16.886;2023-05-10T14:57:11;3.03;;;2.00;;
6955;SDS011;50345;51.136;16.886;2023-05-10T14:59:36;2.10;;;1.90;;
6955;SDS011;50345;51.136;16.886;2023-05-10T15:02:02;1.63;;;1.53;;
6955;SDS011;50345;51.136;16.886;2023-05-10T15:04:29;2.53;;;1.73;;
6955;SDS011;50345;51.136;16.886;2023-05-10T15:06:54;3.73;;;2.37;;
6955;SDS011;50345;51.136;16.886;2023-05-10T15:09:24;4.87;;;2.03;;
6955;SDS011;50345;51.136;16.886;2023-05-10T15:11:49;6.07;;;1.97;;
6955;SDS011;50345;51.136;16.886;2023-05-10T15:14:15;2.27;;;2.07;;
6955;SDS011;50345;51.136;16.886;2023-05-10T15:16:41;2.30;;;2.10;;
6955;SDS011;50345;51.136;16.886;2023-05-10T15:19:06;2.20;;;1.60;;
6955;SDS011;50345;51.136;16.886;2023-05-10T15:21:37;2.10;;;1.93;;
6955;SDS011;50345;51.136;16.886;2023-05-10T15:24:06;2.27;;;2.07;;
6955;SDS011;50345;51.136;16.886;2023-05-10T15:26:32;2.40;;;1.80;;
6955;SDS011;50345;51.136;16.886;2023-05-10T15:28:58;1.70;;;1.60;;
6955;SDS011;50345;51.136;16.886;2023-05-10T15:31:24;3.80;;;2.17;;